Time;durP1;ratioP1;P1;durP2;ratioP2;P2;SDS_P1;SDS_P2;PMS_P1;PMS_P2;Temp;Humidity;BMP_temperature;BMP_pressure;BME280_temperature;BME280_humidity;BME280_pressure;Samples;Min_cycle;Max_cycle;Signal;HPM_P1;HPM_P2
2022/05/14 00:02:15;;;;;;;3.57;2.30;;;;;;;;;;5031298;28;20281;-61
2022/05/14 00:05:02;;;;;;;6.23;2.37;;;;;;;;;;5032022;28;20244;-62
2022/05/14 00:07:50;;;;;;;4.40;2.87;;;;;;;;;;5033022;28;20229;-62
2022/05/14 00:13:40;;;;;;;4.33;2.57;;;;;;;;;;5034207;28;20210;-62
2022/05/14 00:16:27;;;;;;;3.57;2.30;;;;;;;;;;5032990;28;20243;-61
2022/05/14 00:19:15;;;;;;;3.53;2.30;;;;;;;;;;5034211;28;20318;-62
2022/05/14 00:22:02;;;;;;;2.80;2.30;;;;;;;;;;5031795;28;20271;-61
2022/05/14 00:24:50;;;;;;;3.03;2.60;;;;;;;;;;5034448;28;20695;-61
2022/05/14 00:27:43;;;;;;;4.83;2.73;;;;;;;;;;5031877;28;20271;-61
2022/05/14 00:30:32;;;;;;;4.57;2.90;;;;;;;;;;5036143;28;20267;-60
2022/05/14 00:33:19;;;;;;;4.20;2.80;;;;;;;;;;5033911;28;20686;-61
2022/05/14 00:36:07;;;;;;;6.90;2.93;;;;;;;;;;5030609;28;20286;-62
2022/05/14 00:38:54;;;;;;;3.50;2.40;;;;;;;;;;5032339;28;20403;-61
2022/05/14 00:41:47;;;;;;;3.43;2.20;;;;;;;;;;5030163;28;20215;-62
2022/05/14 00:44:35;;;;;;;4.93;2.57;;;;;;;;;;5033754;28;20292;-62
2022/05/14 00:47:22;;;;;;;5.20;3.00;;;;;;;;;;5030681;28;20728;-62
2022/05/14 00:50:13;;;;;;;4.17;2.80;;;;;;;;;;5032810;28;20265;-61
2022/05/14 00:53:03;;;;;;;3.90;2.30;;;;;;;;;;5033637;28;20319;-62
2022/05/14 00:55:53;;;;;;;3.17;2.27;;;;;;;;;;5037843;28;20213;-61
2022/05/14 00:58:44;;;;;;;4.07;2.70;;;;;;;;;;5032567;28;20215;-62
2022/05/14 01:01:33;;;;;;;3.47;2.27;;;;;;;;;;5030460;28;20320;-61
2022/05/14 01:04:21;;;;;;;4.07;2.60;;;;;;;;;;5039001;28;20228;-61
2022/05/14 01:07:11;;;;;;;5.53;2.73;;;;;;;;;;5031751;28;20569;-61
2022/05/14 01:10:00;;;;;;;4.77;2.60;;;;;;;;;;5030101;28;20216;-61
2022/05/14 01:12:50;;;;;;;3.27;2.47;;;;;;;;;;5031053;28;20219;-62
2022/05/14 01:15:41;;;;;;;2.40;2.20;;;;;;;;;;5034697;28;20267;-62
2022/05/14 01:18:33;;;;;;;4.57;2.60;;;;;;;;;;5035537;28;20338;-59
2022/05/14 01:21:32;;;;;;;5.00;2.50;;;;;;;;;;5033811;28;20217;-61
2022/05/14 01:27:33;;;;;;;3.63;2.60;;;;;;;;;;5030795;28;20424;-62
2022/05/14 01:30:20;;;;;;;4.07;2.70;;;;;;;;;;5032039;28;20216;-61
2022/05/14 01:33:07;;;;;;;3.37;2.53;;;;;;;;;;5033584;28;20739;-62
2022/05/14 01:35:55;;;;;;;5.10;2.90;;;;;;;;;;5036101;28;20279;-62
2022/05/14 01:38:42;;;;;;;5.07;2.87;;;;;;;;;;5033516;28;20714;-61
2022/05/14 01:41:29;;;;;;;5.33;2.80;;;;;;;;;;5030297;28;20328;-61
2022/05/14 01:44:17;;;;;;;5.37;2.93;;;;;;;;;;5030009;28;20228;-61
2022/05/14 01:47:04;;;;;;;4.60;2.97;;;;;;;;;;5032332;28;20204;-62
2022/05/14 01:49:51;;;;;;;4.43;2.37;;;;;;;;;;5031479;28;20335;-61
2022/05/14 01:52:39;;;;;;;5.13;2.70;;;;;;;;;;5029138;28;20291;-62
2022/05/14 01:55:26;;;;;;;5.13;3.17;;;;;;;;;;5027409;28;20690;-60
2022/05/14 02:01:21;;;;;;;4.87;2.90;;;;;;;;;;5028087;28;20201;-60
2022/05/14 02:04:11;;;;;;;4.97;3.07;;;;;;;;;;5028993;28;20283;-61
2022/05/14 02:06:58;;;;;;;4.77;2.80;;;;;;;;;;5029958;28;20209;-62
2022/05/14 02:09:45;;;;;;;4.77;2.67;;;;;;;;;;5033517;28;20266;-61
2022/05/14 02:12:32;;;;;;;4.83;2.73;;;;;;;;;;5031511;28;20283;-61
2022/05/14 02:15:19;;;;;;;4.20;2.63;;;;;;;;;;5042458;28;20291;-61
2022/05/14 02:18:08;;;;;;;3.97;2.40;;;;;;;;;;5028897;28;20315;-62
2022/05/14 02:20:54;;;;;;;4.20;2.50;;;;;;;;;;5031501;28;20260;-62
2022/05/14 02:23:42;;;;;;;4.50;2.83;;;;;;;;;;5030375;28;20749;-62
2022/05/14 02:26:29;;;;;;;4.67;3.00;;;;;;;;;;5030416;28;20266;-61
2022/05/14 02:29:16;;;;;;;5.43;3.00;;;;;;;;;;5034686;28;20212;-61
2022/05/14 02:32:04;;;;;;;3.83;2.63;;;;;;;;;;5031593;28;20342;-62
2022/05/14 02:34:53;;;;;;;3.43;2.73;;;;;;;;;;5038456;28;20214;-61
2022/05/14 02:37:40;;;;;;;6.30;3.30;;;;;;;;;;5029257;28;20638;-62
2022/05/14 02:40:27;;;;;;;5.40;3.07;;;;;;;;;;5028101;28;20629;-61
2022/05/14 02:43:15;;;;;;;3.80;2.70;;;;;;;;;;5026953;28;20784;-64
2022/05/14 02:46:03;;;;;;;5.43;2.50;;;;;;;;;;5029244;28;20340;-61
2022/05/14 02:48:49;;;;;;;3.87;2.50;;;;;;;;;;5030343;28;20302;-61
2022/05/14 02:51:39;;;;;;;4.60;2.60;;;;;;;;;;5030757;28;20214;-61
2022/05/14 02:54:26;;;;;;;5.47;3.10;;;;;;;;;;5031235;28;20322;-62
2022/05/14 02:57:13;;;;;;;4.10;2.83;;;;;;;;;;5032170;28;20336;-61
2022/05/14 03:00:00;;;;;;;5.73;2.73;;;;;;;;;;5031901;28;20215;-60
2022/05/14 03:02:47;;;;;;;3.63;2.37;;;;;;;;;;5028820;28;20253;-62
2022/05/14 03:05:34;;;;;;;5.13;2.77;;;;;;;;;;5029746;28;20249;-62
2022/05/14 03:08:23;;;;;;;4.03;2.50;;;;;;;;;;5029810;28;20248;-62
2022/05/14 03:11:09;;;;;;;5.27;2.87;;;;;;;;;;5030804;28;20387;-61
2022/05/14 03:13:56;;;;;;;5.00;2.83;;;;;;;;;;5031629;28;20315;-61
2022/05/14 03:16:44;;;;;;;5.17;3.00;;;;;;;;;;5035106;28;20212;-62
2022/05/14 03:19:31;;;;;;;4.67;2.90;;;;;;;;;;5028429;28;20688;-62
2022/05/14 03:22:19;;;;;;;4.73;2.77;;;;;;;;;;5029824;28;20245;-61
2022/05/14 03:25:09;;;;;;;5.00;2.77;;;;;;;;;;5027657;28;20292;-62
2022/05/14 03:27:56;;;;;;;2.90;2.53;;;;;;;;;;5035911;28;20270;-61
2022/05/14 03:30:43;;;;;;;3.87;2.23;;;;;;;;;;5030033;28;20221;-62
2022/05/14 03:33:32;;;;;;;2.93;2.40;;;;;;;;;;5032175;28;20236;-61
2022/05/14 03:36:18;;;;;;;4.23;2.80;;;;;;;;;;5035394;28;20287;-65
2022/05/14 03:39:05;;;;;;;4.33;2.37;;;;;;;;;;5032138;28;20690;-62
2022/05/14 03:41:54;;;;;;;3.53;2.63;;;;;;;;;;5036672;28;20341;-62
2022/05/14 03:44:41;;;;;;;3.93;2.67;;;;;;;;;;5032337;28;20213;-61
2022/05/14 03:47:28;;;;;;;3.70;2.57;;;;;;;;;;5030497;28;20200;-61
2022/05/14 03:50:15;;;;;;;3.37;2.53;;;;;;;;;;5035593;28;20889;-61
2022/05/14 03:53:02;;;;;;;3.83;2.60;;;;;;;;;;5034711;28;20923;-61
2022/05/14 03:55:49;;;;;;;3.93;2.53;;;;;;;;;;5030140;28;20236;-62
2022/05/14 03:58:38;;;;;;;4.73;2.40;;;;;;;;;;5034667;28;20466;-62
2022/05/14 04:01:25;;;;;;;3.27;2.40;;;;;;;;;;5029776;28;20266;-61
2022/05/14 04:04:12;;;;;;;3.23;2.10;;;;;;;;;;5031437;28;20735;-61
2022/05/14 04:06:59;;;;;;;3.63;2.40;;;;;;;;;;5034553;28;20293;-62
2022/05/14 04:09:46;;;;;;;4.13;2.60;;;;;;;;;;5033167;28;20249;-62
2022/05/14 04:12:33;;;;;;;3.60;2.33;;;;;;;;;;5031539;28;20266;-62
2022/05/14 04:15:23;;;;;;;6.07;2.80;;;;;;;;;;5032166;28;20301;-62
2022/05/14 04:18:11;;;;;;;2.43;2.10;;;;;;;;;;5032996;28;20240;-62
2022/05/14 04:21:00;;;;;;;3.63;2.10;;;;;;;;;;5031408;28;20629;-62
2022/05/14 04:23:47;;;;;;;2.83;2.30;;;;;;;;;;5031934;28;20208;-60
2022/05/14 04:26:34;;;;;;;3.10;2.23;;;;;;;;;;5040304;28;20217;-62
2022/05/14 04:29:21;;;;;;;3.87;2.57;;;;;;;;;;5034059;28;20246;-60
2022/05/14 04:32:10;;;;;;;4.53;2.63;;;;;;;;;;5030735;28;20292;-62
2022/05/14 04:34:57;;;;;;;3.37;2.43;;;;;;;;;;5030321;28;20242;-62
2022/05/14 04:37:44;;;;;;;3.03;2.60;;;;;;;;;;5034386;28;20282;-62
2022/05/14 04:40:31;;;;;;;3.43;2.30;;;;;;;;;;5036440;28;20299;-62
2022/05/14 04:43:18;;;;;;;2.67;2.10;;;;;;;;;;5034706;28;20417;-61
2022/05/14 04:46:07;;;;;;;5.50;2.60;;;;;;;;;;5030226;28;20782;-62
2022/05/14 04:48:56;;;;;;;2.93;2.23;;;;;;;;;;5031525;28;20587;-62
2022/05/14 04:51:43;;;;;;;4.47;2.23;;;;;;;;;;5033599;28;20335;-62
2022/05/14 04:54:29;;;;;;;3.17;2.33;;;;;;;;;;5031096;28;20311;-61
2022/05/14 04:57:16;;;;;;;5.53;2.53;;;;;;;;;;5029869;28;20228;-61
2022/05/14 05:00:04;;;;;;;3.27;2.27;;;;;;;;;;5033939;28;20340;-61
2022/05/14 05:05:59;;;;;;;3.87;2.00;;;;;;;;;;5032118;28;20210;-62
2022/05/14 05:08:46;;;;;;;3.77;2.30;;;;;;;;;;5038486;28;20259;-61
2022/05/14 05:11:33;;;;;;;5.30;2.47;;;;;;;;;;5034486;28;20222;-62
2022/05/14 05:14:20;;;;;;;3.90;2.40;;;;;;;;;;5033890;28;20222;-62
2022/05/14 05:17:07;;;;;;;4.57;2.27;;;;;;;;;;5032524;28;20237;-61
2022/05/14 05:19:54;;;;;;;5.03;2.30;;;;;;;;;;5039872;28;20212;-60
2022/05/14 05:22:42;;;;;;;3.43;2.20;;;;;;;;;;5034168;28;20209;-62
2022/05/14 05:25:29;;;;;;;5.50;2.67;;;;;;;;;;5030617;28;20212;-61
2022/05/14 05:28:16;;;;;;;4.77;2.40;;;;;;;;;;5032142;28;20289;-65
2022/05/14 05:31:04;;;;;;;4.20;2.20;;;;;;;;;;5027540;28;20205;-62
2022/05/14 05:33:51;;;;;;;3.30;2.10;;;;;;;;;;5029543;28;20267;-61
2022/05/14 05:36:38;;;;;;;2.87;2.17;;;;;;;;;;5030513;28;20341;-61
2022/05/14 05:39:27;;;;;;;3.50;2.10;;;;;;;;;;5030061;28;20698;-60
2022/05/14 05:42:14;;;;;;;3.13;2.20;;;;;;;;;;5029076;28;20363;-61
2022/05/14 05:45:01;;;;;;;4.03;2.30;;;;;;;;;;5030012;28;20338;-61
2022/05/14 05:47:47;;;;;;;4.77;2.23;;;;;;;;;;5029726;28;20209;-61
2022/05/14 05:50:37;;;;;;;4.50;2.13;;;;;;;;;;5030928;28;20788;-62
2022/05/14 05:56:46;;;;;;;2.87;2.10;;;;;;;;;;5029129;28;20337;-61
2022/05/14 05:56:47;;;;;;;3.37;2.20;;;;;;;;;;5030445;28;20209;-62
2022/05/14 05:59:34;;;;;;;2.83;2.03;;;;;;;;;;5031567;28;20259;-61
2022/05/14 06:02:21;;;;;;;3.67;2.40;;;;;;;;;;5028741;28;20624;-61
2022/05/14 06:05:09;;;;;;;3.47;2.13;;;;;;;;;;5029048;28;20589;-61
2022/05/14 06:07:56;;;;;;;2.87;1.80;;;;;;;;;;5030896;28;20698;-62
2022/05/14 06:10:43;;;;;;;3.83;2.10;;;;;;;;;;5031286;28;20360;-62
2022/05/14 06:13:32;;;;;;;3.43;1.80;;;;;;;;;;5031238;28;20286;-60
2022/05/14 06:16:19;;;;;;;3.33;1.90;;;;;;;;;;5029877;28;20210;-62
2022/05/14 06:19:06;;;;;;;2.43;1.73;;;;;;;;;;5028673;28;20286;-61
2022/05/14 06:21:53;;;;;;;3.93;2.27;;;;;;;;;;5029821;28;20225;-61
2022/05/14 06:24:40;;;;;;;3.77;2.43;;;;;;;;;;5032425;28;20212;-62
2022/05/14 06:27:27;;;;;;;4.60;2.27;;;;;;;;;;5029994;28;20723;-61
2022/05/14 06:30:16;;;;;;;3.63;1.90;;;;;;;;;;5028104;28;20755;-62
2022/05/14 06:33:03;;;;;;;2.43;1.90;;;;;;;;;;5028979;28;20262;-61
2022/05/14 06:35:50;;;;;;;2.20;2.00;;;;;;;;;;5029140;28;20585;-61
2022/05/14 06:38:38;;;;;;;2.40;1.93;;;;;;;;;;5027254;28;20239;-62
2022/05/14 06:41:25;;;;;;;2.87;1.90;;;;;;;;;;5030267;28;20211;-62
2022/05/14 06:44:12;;;;;;;2.00;1.50;;;;;;;;;;5030056;28;20239;-62
2022/05/14 06:47:00;;;;;;;3.93;2.07;;;;;;;;;;5029145;28;20289;-61
2022/05/14 06:49:47;;;;;;;3.13;1.90;;;;;;;;;;5031832;28;20264;-61
2022/05/14 06:52:35;;;;;;;1.80;1.60;;;;;;;;;;5030685;28;20659;-62
2022/05/14 06:55:25;;;;;;;2.37;1.70;;;;;;;;;;5028204;28;20265;-60
2022/05/14 06:58:16;;;;;;;2.83;1.80;;;;;;;;;;5030566;28;20262;-61
2022/05/14 07:01:03;;;;;;;4.07;1.60;;;;;;;;;;5033110;28;20236;-61
2022/05/14 07:06:59;;;;;;;2.00;1.80;;;;;;;;;;5032101;28;20213;-62
2022/05/14 07:09:48;;;;;;;1.83;1.50;;;;;;;;;;5030516;28;20688;-62
2022/05/14 07:12:35;;;;;;;2.53;2.00;;;;;;;;;;5035054;28;20297;-62
2022/05/14 07:15:22;;;;;;;1.43;1.23;;;;;;;;;;5030504;28;20288;-62
2022/05/14 07:18:09;;;;;;;2.45;1.50;;;;;;;;;;5030398;28;20359;-61
2022/05/14 07:20:57;;;;;;;1.55;1.45;;;;;;;;;;5028819;28;20672;-62
2022/05/14 07:23:44;;;;;;;2.95;1.73;;;;;;;;;;5029688;28;20248;-59
2022/05/14 07:26:31;;;;;;;2.22;1.77;;;;;;;;;;5032763;28;20301;-60
2022/05/14 07:29:20;;;;;;;1.73;1.40;;;;;;;;;;5028619;28;20742;-60
2022/05/14 07:32:08;;;;;;;2.03;1.42;;;;;;;;;;5038814;28;20261;-60
2022/05/14 07:34:54;;;;;;;1.67;1.40;;;;;;;;;;5031468;28;20295;-59
2022/05/14 07:37:47;;;;;;;1.98;1.40;;;;;;;;;;5029750;28;20263;-60
2022/05/14 07:40:36;;;;;;;2.13;1.67;;;;;;;;;;5028816;28;20295;-60
2022/05/14 07:43:30;;;;;;;2.78;1.77;;;;;;;;;;5027824;28;20216;-59
2022/05/14 07:46:20;;;;;;;2.17;1.25;;;;;;;;;;5026953;28;20223;-60
2022/05/14 07:49:11;;;;;;;3.27;1.60;;;;;;;;;;5022957;28;20742;-60
2022/05/14 07:51:58;;;;;;;2.20;1.73;;;;;;;;;;5009623;28;20216;-61
2022/05/14 07:54:46;;;;;;;2.65;1.30;;;;;;;;;;5010706;28;20331;-61
2022/05/14 07:57:33;;;;;;;2.25;1.60;;;;;;;;;;5013221;28;20601;-60
2022/05/14 08:00:21;;;;;;;2.22;1.70;;;;;;;;;;5007894;28;20251;-60
2022/05/14 08:03:08;;;;;;;2.13;1.50;;;;;;;;;;5011833;28;20238;-60
2022/05/14 08:05:56;;;;;;;3.00;1.33;;;;;;;;;;5012866;28;20302;-60
2022/05/14 08:08:43;;;;;;;2.73;1.60;;;;;;;;;;5018022;28;20223;-60
2022/05/14 08:11:31;;;;;;;2.37;1.30;;;;;;;;;;5007979;28;20207;-61
2022/05/14 08:14:19;;;;;;;2.00;1.60;;;;;;;;;;5015276;28;20215;-61
2022/05/14 08:17:06;;;;;;;2.13;1.80;;;;;;;;;;5017762;28;20212;-61
2022/05/14 08:19:53;;;;;;;2.80;1.60;;;;;;;;;;5024356;28;20289;-61
2022/05/14 08:25:44;;;;;;;3.20;1.60;;;;;;;;;;5011717;28;20211;-61
2022/05/14 08:28:33;;;;;;;2.77;1.70;;;;;;;;;;5019460;28;20243;-60
2022/05/14 08:31:20;;;;;;;3.03;1.20;;;;;;;;;;5016501;28;20216;-61
2022/05/14 08:34:07;;;;;;;2.63;1.43;;;;;;;;;;5018911;28;20341;-61
2022/05/14 08:36:54;;;;;;;1.50;1.30;;;;;;;;;;5017597;28;20334;-60
2022/05/14 08:39:41;;;;;;;2.33;1.30;;;;;;;;;;5020143;28;20284;-61
2022/05/14 08:42:30;;;;;;;1.43;1.00;;;;;;;;;;5018593;28;20288;-61
2022/05/14 08:45:22;;;;;;;2.17;1.45;;;;;;;;;;5017043;28;20516;-61
2022/05/14 08:48:15;;;;;;;2.22;1.23;;;;;;;;;;5014739;28;20658;-61
2022/05/14 08:51:04;;;;;;;1.30;1.20;;;;;;;;;;5010934;28;20220;-61
2022/05/14 08:53:52;;;;;;;2.22;1.45;;;;;;;;;;5015394;28;20751;-60
2022/05/14 08:56:43;;;;;;;2.15;1.33;;;;;;;;;;5016243;28;20670;-61
2022/05/14 08:59:46;;;;;;;1.60;1.10;;;;;;;;;;5016027;28;20227;-61
2022/05/14 09:02:37;;;;;;;1.80;1.37;;;;;;;;;;5013912;28;20691;-60
2022/05/14 09:05:26;;;;;;;1.47;1.10;;;;;;;;;;5014151;28;20208;-61
2022/05/14 09:08:15;;;;;;;0.73;0.73;;;;;;;;;;5012396;28;20239;-60
2022/05/14 09:11:06;;;;;;;1.53;1.20;;;;;;;;;;5016345;28;20215;-61
2022/05/14 09:13:55;;;;;;;1.00;0.80;;;;;;;;;;5014774;28;20698;-61
2022/05/14 09:16:42;;;;;;;1.77;1.27;;;;;;;;;;5014517;28;20205;-61
2022/05/14 09:19:36;;;;;;;1.33;1.20;;;;;;;;;;5015883;28;20534;-61
2022/05/14 09:22:39;;;;;;;1.73;1.10;;;;;;;;;;5012743;28;20217;-60
2022/05/14 09:25:29;;;;;;;2.80;1.13;;;;;;;;;;5009811;28;20210;-61
2022/05/14 09:28:27;;;;;;;1.63;1.03;;;;;;;;;;5016948;28;20219;-61
2022/05/14 09:31:24;;;;;;;1.00;0.97;;;;;;;;;;5015979;28;20294;-61
2022/05/14 09:34:14;;;;;;;1.60;1.20;;;;;;;;;;5018549;28;20208;-61
2022/05/14 09:37:09;;;;;;;1.13;0.83;;;;;;;;;;5012785;28;20242;-61
2022/05/14 09:39:58;;;;;;;1.37;1.20;;;;;;;;;;5016174;28;20247;-61
2022/05/14 09:42:47;;;;;;;1.17;0.87;;;;;;;;;;5010966;28;20240;-61
2022/05/14 09:45:37;;;;;;;1.27;1.17;;;;;;;;;;5017733;28;20212;-61
2022/05/14 09:48:31;;;;;;;1.00;0.90;;;;;;;;;;5013921;28;20683;-60
2022/05/14 09:51:29;;;;;;;0.80;0.80;;;;;;;;;;5016265;28;20220;-61
2022/05/14 09:54:22;;;;;;;1.63;1.13;;;;;;;;;;5014218;28;20376;-61
2022/05/14 09:57:21;;;;;;;1.83;1.07;;;;;;;;;;5011663;28;20711;-61
2022/05/14 10:00:14;;;;;;;1.13;1.03;;;;;;;;;;5010250;28;20228;-61
2022/05/14 10:03:14;;;;;;;1.07;0.77;;;;;;;;;;5009126;28;20220;-61
2022/05/14 10:06:10;;;;;;;0.87;0.87;;;;;;;;;;5015742;28;20595;-62
2022/05/14 10:09:07;;;;;;;0.80;0.70;;;;;;;;;;5014649;28;20207;-61
2022/05/14 10:12:04;;;;;;;1.27;0.63;;;;;;;;;;5017449;28;20273;-61
2022/05/14 10:14:57;;;;;;;0.97;0.80;;;;;;;;;;5011330;28;20260;-60
2022/05/14 10:17:58;;;;;;;1.50;0.70;;;;;;;;;;5015800;28;20248;-61
2022/05/14 10:20:54;;;;;;;1.10;1.00;;;;;;;;;;5014557;28;20311;-61
2022/05/14 10:27:15;;;;;;;0.93;0.80;;;;;;;;;;5011714;28;20218;-62
2022/05/14 10:30:15;;;;;;;0.50;0.50;;;;;;;;;;5013607;28;20198;-62
2022/05/14 10:33:05;;;;;;;0.60;0.60;;;;;;;;;;5016247;28;20219;-61
2022/05/14 10:35:57;;;;;;;0.60;0.57;;;;;;;;;;5011371;28;20266;-60
2022/05/14 10:38:46;;;;;;;0.90;0.90;;;;;;;;;;5012085;28;20212;-59
2022/05/14 10:41:38;;;;;;;1.47;1.00;;;;;;;;;;5014845;28;20262;-59
2022/05/14 10:44:36;;;;;;;1.00;0.93;;;;;;;;;;5011802;28;20212;-60
2022/05/14 10:47:26;;;;;;;0.80;0.80;;;;;;;;;;5012254;28;20240;-61
2022/05/14 10:50:18;;;;;;;2.33;0.73;;;;;;;;;;5020566;28;20593;-60
2022/05/14 10:53:08;;;;;;;1.63;0.70;;;;;;;;;;5029234;28;20231;-61
2022/05/14 10:56:03;;;;;;;1.07;0.73;;;;;;;;;;5028448;28;20213;-61
2022/05/14 10:58:59;;;;;;;0.70;0.70;;;;;;;;;;5029566;28;20223;-60
2022/05/14 11:02:02;;;;;;;1.30;0.83;;;;;;;;;;5027792;28;20232;-60
2022/05/14 11:04:51;;;;;;;0.93;0.90;;;;;;;;;;5032793;28;20313;-60
2022/05/14 11:07:42;;;;;;;0.90;0.90;;;;;;;;;;5028712;28;20201;-61
2022/05/14 11:10:34;;;;;;;1.90;0.80;;;;;;;;;;5030566;28;20195;-61
2022/05/14 11:13:24;;;;;;;1.07;0.70;;;;;;;;;;5028417;28;20298;-61
2022/05/14 11:16:13;;;;;;;0.97;0.67;;;;;;;;;;5026881;28;20215;-61
2022/05/14 11:19:04;;;;;;;0.90;0.60;;;;;;;;;;5029940;28;20217;-61
2022/05/14 11:21:51;;;;;;;2.07;0.80;;;;;;;;;;5030092;28;20239;-61
2022/05/14 11:24:40;;;;;;;0.73;0.70;;;;;;;;;;5027507;28;20690;-61
2022/05/14 11:27:30;;;;;;;0.77;0.70;;;;;;;;;;5027797;28;20221;-61
2022/05/14 11:30:30;;;;;;;1.80;0.73;;;;;;;;;;5026750;28;20586;-61
2022/05/14 11:33:22;;;;;;;0.80;0.80;;;;;;;;;;5030594;28;20210;-60
2022/05/14 11:36:22;;;;;;;1.13;0.90;;;;;;;;;;5029032;28;20251;-60
2022/05/14 11:39:23;;;;;;;0.90;0.90;;;;;;;;;;5029525;28;20211;-61
2022/05/14 11:42:25;;;;;;;0.80;0.80;;;;;;;;;;5031488;28;20261;-61
2022/05/14 11:45:17;;;;;;;1.33;0.90;;;;;;;;;;5033045;28;20232;-61
2022/05/14 11:48:07;;;;;;;0.70;0.70;;;;;;;;;;5032071;28;20282;-61
2022/05/14 11:50:59;;;;;;;1.03;0.90;;;;;;;;;;5018288;28;20329;-61
2022/05/14 11:53:53;;;;;;;2.87;0.87;;;;;;;;;;5018187;28;20324;-61
2022/05/14 11:56:45;;;;;;;0.70;0.70;;;;;;;;;;5015680;28;20338;-62
2022/05/14 11:59:40;;;;;;;0.80;0.63;;;;;;;;;;5018509;28;20528;-61
2022/05/14 12:02:37;;;;;;;1.90;0.93;;;;;;;;;;5017536;28;20200;-62
2022/05/14 12:05:26;;;;;;;0.80;0.77;;;;;;;;;;5013533;28;20684;-63
2022/05/14 12:08:38;;;;;;;1.07;0.97;;;;;;;;;;5026805;28;20577;-63
2022/05/14 12:11:35;;;;;;;0.93;0.70;;;;;;;;;;5012745;28;20298;-62
2022/05/14 12:14:30;;;;;;;0.70;0.70;;;;;;;;;;5019111;28;20206;-62
2022/05/14 12:17:21;;;;;;;0.60;0.60;;;;;;;;;;5015906;28;20288;-62
2022/05/14 12:20:10;;;;;;;1.57;0.73;;;;;;;;;;5016928;28;20541;-62
2022/05/14 12:23:00;;;;;;;0.63;0.63;;;;;;;;;;5022373;28;20686;-62
2022/05/14 12:25:49;;;;;;;1.93;0.67;;;;;;;;;;5021593;28;20289;-62
2022/05/14 12:28:37;;;;;;;0.87;0.60;;;;;;;;;;5016369;28;20292;-62
2022/05/14 12:34:34;;;;;;;1.90;0.70;;;;;;;;;;5020608;28;20293;-63
2022/05/14 12:37:25;;;;;;;1.40;0.80;;;;;;;;;;5023315;28;20285;-62
2022/05/14 12:40:23;;;;;;;0.77;0.50;;;;;;;;;;5022139;28;20308;-62
2022/05/14 12:43:15;;;;;;;0.90;0.70;;;;;;;;;;5019397;28;20238;-62
2022/05/14 12:46:07;;;;;;;1.73;0.70;;;;;;;;;;5018882;28;20208;-62
2022/05/14 12:48:57;;;;;;;0.77;0.50;;;;;;;;;;5024188;28;20770;-63
2022/05/14 12:51:49;;;;;;;1.57;0.57;;;;;;;;;;5018674;28;20232;-62
2022/05/14 12:54:37;;;;;;;0.70;0.70;;;;;;;;;;5024514;28;20257;-63
2022/05/14 12:57:26;;;;;;;0.53;0.50;;;;;;;;;;5016613;28;20222;-62
2022/05/14 13:00:16;;;;;;;0.87;0.53;;;;;;;;;;5014899;28;20346;-61
2022/05/14 13:03:10;;;;;;;2.00;0.80;;;;;;;;;;5015222;28;20210;-63
2022/05/14 13:06:01;;;;;;;1.00;0.70;;;;;;;;;;5014807;28;20238;-62
2022/05/14 13:08:52;;;;;;;0.70;0.70;;;;;;;;;;5013136;28;20293;-62
2022/05/14 13:11:47;;;;;;;2.53;1.10;;;;;;;;;;5012809;28;20257;-61
2022/05/14 13:14:37;;;;;;;2.43;0.80;;;;;;;;;;5016411;28;20283;-62
2022/05/14 13:17:31;;;;;;;1.00;1.00;;;;;;;;;;5015408;28;20331;-62
2022/05/14 13:20:23;;;;;;;1.17;0.97;;;;;;;;;;5010864;28;20498;-63
2022/05/14 13:23:13;;;;;;;1.00;1.00;;;;;;;;;;5015288;28;20241;-63
2022/05/14 13:26:03;;;;;;;1.00;0.90;;;;;;;;;;5021107;28;20786;-62
2022/05/14 13:28:50;;;;;;;0.80;0.80;;;;;;;;;;5017420;28;20311;-62
2022/05/14 13:31:36;;;;;;;1.30;1.10;;;;;;;;;;5017933;28;20215;-62
2022/05/14 13:37:39;;;;;;;0.67;0.67;;;;;;;;;;5021869;28;20218;-62
2022/05/14 13:40:29;;;;;;;1.50;1.00;;;;;;;;;;5017014;28;20331;-62
2022/05/14 13:43:18;;;;;;;1.07;0.97;;;;;;;;;;5018943;28;20290;-62
2022/05/14 13:46:09;;;;;;;1.10;1.00;;;;;;;;;;5019969;28;20300;-62
2022/05/14 13:48:56;;;;;;;0.80;0.80;;;;;;;;;;5018664;28;20698;-61
2022/05/14 13:51:49;;;;;;;0.93;0.80;;;;;;;;;;5032466;28;20243;-62
2022/05/14 13:54:39;;;;;;;2.20;0.90;;;;;;;;;;5030137;28;20236;-62
2022/05/14 13:57:27;;;;;;;1.43;0.90;;;;;;;;;;5034399;28;20237;-63
2022/05/14 14:00:21;;;;;;;1.03;1.03;;;;;;;;;;5030703;28;20225;-62
2022/05/14 14:03:17;;;;;;;1.07;0.93;;;;;;;;;;5035076;28;20352;-62
2022/05/14 14:06:04;;;;;;;0.60;0.60;;;;;;;;;;5030890;28;20220;-62
2022/05/14 14:08:51;;;;;;;0.87;0.77;;;;;;;;;;5033129;28;20702;-62
2022/05/14 14:11:44;;;;;;;2.00;0.83;;;;;;;;;;5031367;28;20589;-62
2022/05/14 14:14:32;;;;;;;1.03;0.93;;;;;;;;;;5032322;28;20205;-63
2022/05/14 14:17:19;;;;;;;1.17;1.00;;;;;;;;;;5029657;28;20338;-62
2022/05/14 14:20:07;;;;;;;1.77;0.80;;;;;;;;;;5030973;28;20270;-62
2022/05/14 14:22:54;;;;;;;1.13;0.70;;;;;;;;;;5034723;28;20235;-62
2022/05/14 14:25:41;;;;;;;0.80;0.80;;;;;;;;;;5030354;28;20228;-62
2022/05/14 14:28:30;;;;;;;0.77;0.77;;;;;;;;;;5032831;28;20543;-61
2022/05/14 14:31:18;;;;;;;0.93;0.83;;;;;;;;;;5031401;28;20201;-62
2022/05/14 14:34:05;;;;;;;2.57;0.97;;;;;;;;;;5035670;28;20689;-62
2022/05/14 14:36:52;;;;;;;1.00;1.00;;;;;;;;;;5032262;28;20269;-61
2022/05/14 14:39:39;;;;;;;0.80;0.80;;;;;;;;;;5030398;28;20296;-62
2022/05/14 14:42:26;;;;;;;1.83;0.93;;;;;;;;;;5029430;28;20264;-61
2022/05/14 14:45:15;;;;;;;1.27;0.73;;;;;;;;;;5030423;28;20210;-62
2022/05/14 14:48:03;;;;;;;1.10;0.90;;;;;;;;;;5034073;28;20231;-62
2022/05/14 14:50:50;;;;;;;0.73;0.73;;;;;;;;;;5032812;28;20248;-63
2022/05/14 14:53:39;;;;;;;1.30;1.20;;;;;;;;;;5030990;28;20321;-62
2022/05/14 14:56:25;;;;;;;1.83;1.10;;;;;;;;;;5031103;28;20300;-62
2022/05/14 14:59:12;;;;;;;1.43;0.87;;;;;;;;;;5029602;28;20312;-62
2022/05/14 15:02:05;;;;;;;1.37;1.20;;;;;;;;;;5035249;28;20654;-62
2022/05/14 15:04:56;;;;;;;1.83;1.00;;;;;;;;;;5030528;28;20243;-63
2022/05/14 15:07:43;;;;;;;1.93;1.07;;;;;;;;;;5030988;28;20213;-62
2022/05/14 15:10:31;;;;;;;1.10;0.97;;;;;;;;;;5031962;28;20726;-62
2022/05/14 15:13:25;;;;;;;1.27;0.57;;;;;;;;;;5030753;28;20293;-62
2022/05/14 15:16:12;;;;;;;1.17;1.03;;;;;;;;;;5029278;28;20238;-62
2022/05/14 15:19:01;;;;;;;0.80;0.70;;;;;;;;;;5033417;28;20206;-62
2022/05/14 15:21:47;;;;;;;1.43;0.90;;;;;;;;;;5031339;28;20849;-62
2022/05/14 15:24:35;;;;;;;1.53;1.10;;;;;;;;;;5030136;28;20233;-61
2022/05/14 15:27:22;;;;;;;0.83;0.80;;;;;;;;;;5029297;28;20213;-62
2022/05/14 15:30:11;;;;;;;1.20;0.90;;;;;;;;;;5031480;28;20298;-62
2022/05/14 15:32:59;;;;;;;1.47;0.97;;;;;;;;;;5032621;28;20210;-63
2022/05/14 15:35:48;;;;;;;0.70;0.67;;;;;;;;;;5032262;28;20248;-60
2022/05/14 15:38:35;;;;;;;2.37;1.13;;;;;;;;;;5029961;28;20241;-62
2022/05/14 15:41:22;;;;;;;1.70;0.90;;;;;;;;;;5033625;28;20304;-62
2022/05/14 15:44:14;;;;;;;1.17;0.70;;;;;;;;;;5029181;28;20298;-62
2022/05/14 15:47:02;;;;;;;1.53;0.83;;;;;;;;;;5033380;28;20915;-62
2022/05/14 15:49:53;;;;;;;1.53;1.03;;;;;;;;;;5029415;28;20241;-62
2022/05/14 15:52:44;;;;;;;1.67;1.00;;;;;;;;;;5030103;28;20303;-63
2022/05/14 15:55:30;;;;;;;1.57;0.97;;;;;;;;;;5028856;28;20255;-61
2022/05/14 15:58:18;;;;;;;1.60;1.00;;;;;;;;;;5033617;28;20299;-62
2022/05/14 16:01:06;;;;;;;1.87;0.90;;;;;;;;;;5029322;28;20257;-62
2022/05/14 16:03:53;;;;;;;1.90;1.10;;;;;;;;;;5030575;28;20967;-60
2022/05/14 16:06:40;;;;;;;1.23;0.87;;;;;;;;;;5030316;28;20214;-62
2022/05/14 16:09:28;;;;;;;1.10;1.00;;;;;;;;;;5031345;28;20790;-61
2022/05/14 16:18:32;;;;;;;1.50;0.83;;;;;;;;;;5023943;28;20697;-62
2022/05/14 16:21:21;;;;;;;1.30;1.00;;;;;;;;;;5032573;28;20222;-62
2022/05/14 16:24:09;;;;;;;1.20;0.77;;;;;;;;;;5027704;28;20206;-61
2022/05/14 16:26:58;;;;;;;1.93;1.10;;;;;;;;;;5023461;28;20283;-61
2022/05/14 16:32:50;;;;;;;1.97;1.30;;;;;;;;;;5022047;28;20203;-61
2022/05/14 16:35:39;;;;;;;1.27;0.83;;;;;;;;;;5025000;28;20717;-61
2022/05/14 16:38:25;;;;;;;2.23;0.93;;;;;;;;;;5022638;28;20710;-61
2022/05/14 16:41:13;;;;;;;1.77;1.00;;;;;;;;;;5025861;28;20221;-62
2022/05/14 16:44:01;;;;;;;2.20;1.30;;;;;;;;;;5025677;28;20214;-61
2022/05/14 16:46:49;;;;;;;3.17;1.20;;;;;;;;;;5028425;28;20201;-62
2022/05/14 16:49:36;;;;;;;1.40;0.97;;;;;;;;;;5027845;28;20236;-60
2022/05/14 16:52:23;;;;;;;3.10;1.37;;;;;;;;;;5025886;28;20279;-59
2022/05/14 16:55:12;;;;;;;1.57;1.10;;;;;;;;;;5027157;28;20555;-61
2022/05/14 16:57:59;;;;;;;1.37;1.20;;;;;;;;;;5026744;28;20298;-61
2022/05/14 17:00:48;;;;;;;1.10;1.00;;;;;;;;;;5024142;28;20228;-61
2022/05/14 17:03:35;;;;;;;1.67;0.93;;;;;;;;;;5029374;28;20227;-61
2022/05/14 17:06:22;;;;;;;1.83;1.10;;;;;;;;;;5030852;28;20355;-62
2022/05/14 17:09:09;;;;;;;1.73;1.07;;;;;;;;;;5032322;28;20217;-62
2022/05/14 17:11:56;;;;;;;1.33;1.00;;;;;;;;;;5038641;28;20293;-61
2022/05/14 17:14:43;;;;;;;2.27;1.10;;;;;;;;;;5031904;28;20204;-61
2022/05/14 17:17:32;;;;;;;1.90;0.90;;;;;;;;;;5029973;28;20303;-61
2022/05/14 17:20:23;;;;;;;1.27;1.07;;;;;;;;;;5030814;28;20293;-61
2022/05/14 17:23:10;;;;;;;1.33;0.80;;;;;;;;;;5029576;28;20206;-62
2022/05/14 17:25:58;;;;;;;1.77;1.23;;;;;;;;;;5029273;28;20271;-61
2022/05/14 17:28:45;;;;;;;1.70;1.27;;;;;;;;;;5028659;28;20224;-61
2022/05/14 17:31:33;;;;;;;1.27;1.17;;;;;;;;;;5027324;28;20263;-62
2022/05/14 17:34:21;;;;;;;1.03;0.97;;;;;;;;;;5026947;28;20647;-61